Time;durP1;ratioP1;P1;durP2;ratioP2;P2;SDS_P1;SDS_P2;PMS_P1;PMS_P2;Temp;Humidity;BMP_temperature;BMP_pressure;BME280_temperature;BME280_humidity;BME280_pressure;Samples;Min_cycle;Max_cycle;Signal;HPM_P1;HPM_P2
2021/03/04 00:02:00;;;;;;;57.90;38.00;;;7.90;74.50;;;;;;5095756;28;20208;-60
2021/03/04 00:04:27;;;;;;;63.93;37.73;;;7.90;74.70;;;;;;5093316;28;20652;-60
2021/03/04 00:06:54;;;;;;;59.00;37.80;;;7.90;74.80;;;;;;5107771;28;20208;-60
2021/03/04 00:09:20;;;;;;;62.50;38.77;;;7.80;74.90;;;;;;5092194;28;20209;-60
2021/03/04 00:11:47;;;;;;;59.47;38.27;;;7.80;75.70;;;;;;5095880;28;20205;-60
2021/03/04 00:14:13;;;;;;;63.17;37.77;;;7.80;75.20;;;;;;5095927;28;20233;-60
2021/03/04 00:16:40;;;;;;;62.33;37.43;;;7.80;75.30;;;;;;5099501;28;20212;-60
2021/03/04 00:19:07;;;;;;;64.63;38.47;;;7.70;75.40;;;;;;5095165;28;20241;-61
2021/03/04 00:21:33;;;;;;;56.63;35.13;;;7.70;75.40;;;;;;5097761;28;20209;-61
2021/03/04 00:24:00;;;;;;;57.63;36.47;;;7.70;75.50;;;;;;5099875;28;20205;-60
2021/03/04 00:26:26;;;;;;;60.83;36.93;;;7.70;75.50;;;;;;5095391;28;20248;-60
2021/03/04 00:28:53;;;;;;;61.37;37.30;;;7.60;75.60;;;;;;5091474;28;20223;-60
2021/03/04 00:31:20;;;;;;;56.13;34.93;;;7.60;75.60;;;;;;5092925;28;20212;-60
2021/03/04 00:33:46;;;;;;;61.40;35.50;;;7.60;75.70;;;;;;5095695;28;20267;-60
2021/03/04 00:36:13;;;;;;;61.20;36.60;;;7.50;75.80;;;;;;5092106;28;20208;-60
2021/03/04 00:38:39;;;;;;;61.20;34.93;;;7.50;75.90;;;;;;5094535;28;20579;-61
2021/03/04 00:41:06;;;;;;;56.50;34.17;;;7.50;75.90;;;;;;5092229;28;20216;-61
2021/03/04 00:43:32;;;;;;;53.43;33.03;;;7.50;76.00;;;;;;5101251;28;20209;-60
2021/03/04 00:45:59;;;;;;;69.37;35.30;;;7.50;76.10;;;;;;5098534;28;20223;-60
2021/03/04 00:48:26;;;;;;;55.90;34.83;;;7.50;76.20;;;;;;5091891;28;20220;-61
2021/03/04 00:50:53;;;;;;;54.03;33.10;;;7.50;76.20;;;;;;5094035;28;20212;-60
2021/03/04 00:53:20;;;;;;;57.17;34.97;;;7.50;76.30;;;;;;5099083;28;20261;-60
2021/03/04 00:55:47;;;;;;;55.60;34.13;;;7.50;76.30;;;;;;5095739;28;20605;-60
2021/03/04 00:58:14;;;;;;;53.80;33.77;;;7.50;76.10;;;;;;5093009;28;20250;-61
2021/03/04 01:00:41;;;;;;;59.20;33.60;;;7.50;76.00;;;;;;5093266;28;20573;-60
2021/03/04 01:03:07;;;;;;;51.53;32.87;;;7.50;76.00;;;;;;5099428;28;20217;-60
2021/03/04 01:05:35;;;;;;;55.33;31.27;;;7.50;75.90;;;;;;5097165;28;20228;-61
2021/03/04 01:08:02;;;;;;;53.27;32.73;;;7.50;75.90;;;;;;5093846;28;20212;-60
2021/03/04 01:10:36;;;;;;;55.70;32.00;;;7.50;75.90;;;;;;5100153;28;20201;-60
2021/03/04 01:13:04;;;;;;;53.13;32.00;;;7.50;75.90;;;;;;5091614;28;20224;-60
2021/03/04 01:15:32;;;;;;;51.53;30.90;;;7.50;75.90;;;;;;5094439;28;20208;-60
2021/03/04 01:17:59;;;;;;;50.40;31.10;;;7.50;75.80;;;;;;5097217;28;20222;-60
2021/03/04 01:20:26;;;;;;;50.07;31.30;;;7.50;75.70;;;;;;5090657;28;20225;-60
2021/03/04 01:22:52;;;;;;;54.67;29.97;;;7.50;75.80;;;;;;5092889;28;20220;-60
2021/03/04 01:25:20;;;;;;;54.57;31.13;;;7.40;75.70;;;;;;5099182;28;20251;-60
2021/03/04 01:27:49;;;;;;;49.80;30.33;;;7.40;75.70;;;;;;5099646;28;20209;-60
2021/03/04 01:30:16;;;;;;;46.30;28.87;;;7.40;75.70;;;;;;5093981;28;20204;-60
2021/03/04 01:32:43;;;;;;;48.67;30.23;;;7.30;75.70;;;;;;5101819;28;20322;-60
2021/03/04 01:35:10;;;;;;;55.90;31.90;;;7.20;75.80;;;;;;5101033;28;20201;-60
2021/03/04 01:37:37;;;;;;;55.33;31.27;;;7.20;75.90;;;;;;5091980;28;20209;-60
2021/03/04 01:40:12;;;;;;;48.67;31.03;;;7.20;76.00;;;;;;5101830;28;20216;-60
2021/03/04 01:42:39;;;;;;;54.10;30.63;;;7.10;76.00;;;;;;5101766;28;20215;-60
2021/03/04 01:45:06;;;;;;;51.07;31.57;;;7.10;76.10;;;;;;5099666;28;20240;-60
2021/03/04 01:47:34;;;;;;;57.60;33.77;;;7.00;76.20;;;;;;5091416;28;20208;-60
2021/03/04 01:50:05;;;;;;;66.87;30.27;;;7.00;76.20;;;;;;5094804;28;20220;-60
2021/03/04 01:52:32;;;;;;;55.13;30.33;;;7.00;76.30;;;;;;5097175;28;20239;-61
2021/03/04 01:55:00;;;;;;;51.00;29.57;;;6.90;76.40;;;;;;5099529;28;20439;-61
2021/03/04 01:57:31;;;;;;;53.27;30.33;;;6.90;76.40;;;;;;5105859;28;20699;-60
2021/03/04 01:59:59;;;;;;;46.43;29.07;;;6.80;76.50;;;;;;5099365;28;20773;-61
2021/03/04 02:02:26;;;;;;;52.57;33.20;;;6.70;76.50;;;;;;5108037;28;20200;-60
2021/03/04 02:04:54;;;;;;;47.57;29.80;;;6.70;76.70;;;;;;5097500;28;20201;-60
2021/03/04 02:07:32;;;;;;;55.90;31.77;;;6.70;76.80;;;;;;5101258;28;20223;-60
2021/03/04 02:10:27;;;;;;;50.33;30.93;;;6.70;77.10;;;;;;5109963;28;20489;-60
2021/03/04 02:13:09;;;;;;;52.93;30.70;;;6.60;77.20;;;;;;5099947;28;20225;-60
2021/03/04 02:15:45;;;;;;;51.93;29.27;;;6.70;77.30;;;;;;5102665;28;20291;-60
2021/03/04 02:18:16;;;;;;;48.03;29.17;;;6.70;77.20;;;;;;5095875;28;20666;-61
2021/03/04 02:21:10;;;;;;;49.17;29.13;;;6.70;77.10;;;;;;5094082;28;20216;-61
2021/03/04 02:24:02;;;;;;;51.47;29.80;;;6.70;77.30;;;;;;5101619;28;20205;-60
2021/03/04 02:26:50;;;;;;;52.07;29.00;;;6.70;77.20;;;;;;5103913;28;20205;-60
2021/03/04 02:29:21;;;;;;;47.13;29.50;;;6.60;77.00;;;;;;5097638;28;20230;-60
2021/03/04 02:31:51;;;;;;;49.93;30.10;;;6.60;76.90;;;;;;5102749;28;20211;-60
2021/03/04 02:34:21;;;;;;;50.73;30.83;;;6.50;76.80;;;;;;5099372;28;20682;-60
2021/03/04 02:36:52;;;;;;;52.87;30.17;;;6.50;77.00;;;;;;5102182;28;20664;-60
2021/03/04 02:39:20;;;;;;;45.87;28.80;;;6.50;77.30;;;;;;5101351;28;20232;-60
2021/03/04 02:41:47;;;;;;;49.33;29.87;;;6.50;77.40;;;;;;5102949;28;20213;-60
2021/03/04 02:44:15;;;;;;;51.27;30.17;;;6.50;77.50;;;;;;5100490;28;20219;-60
2021/03/04 02:46:42;;;;;;;50.20;28.83;;;6.40;77.60;;;;;;5095182;28;20220;-60
2021/03/04 02:49:17;;;;;;;44.97;28.43;;;6.40;77.60;;;;;;5102356;28;20250;-60
2021/03/04 02:51:46;;;;;;;42.30;25.90;;;6.40;77.70;;;;;;5100366;28;20213;-60
2021/03/04 02:54:13;;;;;;;49.30;26.47;;;6.40;77.90;;;;;;5096383;28;20578;-60
2021/03/04 02:56:41;;;;;;;47.87;28.43;;;6.40;77.80;;;;;;5097029;28;20200;-60
2021/03/04 02:59:08;;;;;;;45.87;27.93;;;6.30;77.90;;;;;;5092705;28;20240;-60
2021/03/04 03:01:36;;;;;;;46.03;27.63;;;6.30;77.90;;;;;;5098983;28;20210;-60
2021/03/04 03:04:04;;;;;;;45.87;27.90;;;6.30;77.80;;;;;;5097640;28;20403;-60
2021/03/04 03:06:33;;;;;;;51.07;29.03;;;6.30;77.70;;;;;;5095974;28;20217;-60
2021/03/04 03:09:02;;;;;;;51.43;29.67;;;6.30;77.70;;;;;;5100813;28;20205;-61
2021/03/04 03:11:30;;;;;;;48.20;28.07;;;6.20;77.60;;;;;;5098421;28;20227;-60
2021/03/04 03:13:58;;;;;;;46.33;27.73;;;6.20;77.60;;;;;;5098055;28;20225;-60
2021/03/04 03:16:26;;;;;;;43.67;27.37;;;6.20;77.70;;;;;;5104234;28;20216;-60
2021/03/04 03:18:55;;;;;;;42.23;26.33;;;6.10;77.80;;;;;;5100130;28;20292;-60
2021/03/04 03:21:21;;;;;;;41.37;27.27;;;6.10;77.90;;;;;;5106786;28;20262;-61
2021/03/04 03:23:48;;;;;;;53.70;28.30;;;6.10;77.90;;;;;;5099727;28;20205;-60
2021/03/04 03:26:15;;;;;;;46.73;28.23;;;6.00;78.00;;;;;;5098637;28;20892;-61
2021/03/04 03:28:41;;;;;;;50.20;28.77;;;5.90;78.20;;;;;;5101497;28;20200;-60
2021/03/04 03:31:09;;;;;;;43.03;27.20;;;5.90;78.30;;;;;;5105717;28;20204;-60
2021/03/04 03:33:36;;;;;;;49.27;27.30;;;5.90;78.30;;;;;;5108100;28;20311;-60
2021/03/04 03:36:03;;;;;;;41.80;26.37;;;5.90;78.40;;;;;;5105080;28;20543;-60
2021/03/04 03:38:31;;;;;;;45.10;27.80;;;5.90;78.40;;;;;;5095572;28;20201;-60
2021/03/04 03:40:58;;;;;;;46.47;28.50;;;5.90;78.40;;;;;;5094154;28;20205;-61
2021/03/04 03:43:27;;;;;;;47.30;28.37;;;5.90;78.50;;;;;;5097104;28;20212;-60
2021/03/04 03:45:54;;;;;;;47.43;27.23;;;5.90;78.60;;;;;;5098764;28;20208;-60
2021/03/04 03:48:22;;;;;;;41.00;26.07;;;5.90;78.70;;;;;;5092830;28;20246;-61
2021/03/04 03:50:55;;;;;;;47.23;28.43;;;5.90;78.70;;;;;;5105148;28;20261;-60
2021/03/04 03:53:24;;;;;;;46.80;27.53;;;5.80;78.50;;;;;;5091329;28;20221;-60
2021/03/04 03:55:54;;;;;;;47.80;27.10;;;5.80;78.60;;;;;;5100243;28;20204;-61
2021/03/04 03:58:24;;;;;;;46.33;27.70;;;5.80;78.60;;;;;;5098016;28;20232;-60
2021/03/04 04:00:57;;;;;;;52.43;29.00;;;5.80;78.70;;;;;;5096641;28;20287;-60
2021/03/04 04:03:25;;;;;;;46.07;28.93;;;5.70;78.80;;;;;;5093701;28;20249;-60
2021/03/04 04:05:52;;;;;;;44.87;27.67;;;5.70;79.10;;;;;;5096884;28;20216;-60
2021/03/04 04:08:21;;;;;;;45.37;27.13;;;5.60;79.20;;;;;;5098330;28;20222;-60
2021/03/04 04:10:48;;;;;;;50.30;28.83;;;5.60;79.30;;;;;;5091818;28;20217;-60
2021/03/04 04:13:22;;;;;;;49.90;26.33;;;5.60;79.30;;;;;;5093372;28;20309;-60
2021/03/04 04:15:50;;;;;;;51.00;28.70;;;5.60;79.40;;;;;;5099035;28;20209;-60
2021/03/04 04:18:18;;;;;;;49.57;27.97;;;5.60;79.30;;;;;;5098856;28;20212;-61
2021/03/04 04:20:49;;;;;;;44.67;26.53;;;5.50;79.30;;;;;;5092307;28;20197;-61
2021/03/04 04:23:18;;;;;;;46.37;26.73;;;5.50;79.50;;;;;;5097625;28;20291;-59
2021/03/04 04:25:54;;;;;;;56.13;27.13;;;5.50;79.60;;;;;;5094293;28;20212;-59
2021/03/04 04:28:21;;;;;;;46.50;26.27;;;5.50;79.70;;;;;;5093898;28;20212;-59
2021/03/04 04:30:49;;;;;;;41.33;25.60;;;5.50;79.70;;;;;;5092626;28;20209;-60
2021/03/04 04:33:16;;;;;;;42.23;26.70;;;5.50;79.70;;;;;;5099648;28;20267;-60
2021/03/04 04:35:43;;;;;;;40.33;25.40;;;5.50;79.60;;;;;;5099828;28;20215;-60
2021/03/04 04:38:11;;;;;;;43.90;27.73;;;5.40;79.50;;;;;;5092400;28;20197;-60
2021/03/04 04:40:39;;;;;;;44.00;26.53;;;5.30;79.40;;;;;;5095526;28;20209;-60
2021/03/04 04:43:05;;;;;;;47.47;27.47;;;5.30;79.70;;;;;;5097884;28;20220;-60
2021/03/04 04:45:32;;;;;;;48.47;26.40;;;5.30;79.80;;;;;;5097652;28;20661;-60
2021/03/04 04:47:59;;;;;;;45.23;25.93;;;5.30;80.00;;;;;;5094036;28;20209;-60
2021/03/04 04:50:25;;;;;;;39.63;26.00;;;5.20;80.00;;;;;;5097773;28;20201;-60
2021/03/04 04:52:52;;;;;;;39.20;25.90;;;5.20;80.10;;;;;;5100896;28;20233;-60
2021/03/04 04:55:19;;;;;;;42.53;25.37;;;5.20;80.10;;;;;;5100247;28;20212;-60
2021/03/04 04:57:46;;;;;;;43.60;25.03;;;5.20;80.70;;;;;;5091075;28;20209;-60
2021/03/04 05:00:12;;;;;;;47.00;24.97;;;5.20;80.70;;;;;;5103188;28;20208;-60
2021/03/04 05:02:39;;;;;;;47.37;24.50;;;5.20;80.00;;;;;;5095584;28;20647;-60
2021/03/04 05:05:07;;;;;;;42.30;26.50;;;5.20;79.80;;;;;;5098388;28;20201;-60
2021/03/04 05:07:35;;;;;;;43.97;25.07;;;5.10;79.70;;;;;;5095136;28;20215;-60
2021/03/04 05:10:03;;;;;;;41.87;24.73;;;5.10;79.70;;;;;;5093556;28;20219;-60
2021/03/04 05:12:30;;;;;;;42.93;25.60;;;5.10;79.70;;;;;;5094164;28;20578;-60
2021/03/04 05:14:56;;;;;;;39.27;25.83;;;5.10;79.70;;;;;;5105515;28;20236;-60
2021/03/04 05:17:24;;;;;;;42.43;24.50;;;5.00;79.70;;;;;;5092780;28;20220;-60
2021/03/04 05:19:50;;;;;;;48.93;26.53;;;5.00;79.90;;;;;;5097761;28;20227;-60
2021/03/04 05:22:17;;;;;;;40.77;26.30;;;5.00;80.20;;;;;;5092490;28;20224;-60
2021/03/04 05:24:44;;;;;;;44.73;27.00;;;5.00;80.20;;;;;;5102652;28;20262;-60
2021/03/04 05:27:10;;;;;;;45.13;23.57;;;5.00;80.40;;;;;;5102076;28;20630;-60
2021/03/04 05:29:37;;;;;;;48.23;26.97;;;5.00;80.50;;;;;;5105120;28;20208;-60
2021/03/04 05:32:04;;;;;;;44.87;27.53;;;5.00;80.30;;;;;;5094904;28;20417;-60
2021/03/04 05:34:31;;;;;;;49.93;26.67;;;5.00;80.40;;;;;;5100980;28;20328;-60
2021/03/04 05:36:57;;;;;;;51.00;27.17;;;4.90;80.50;;;;;;5098384;28;20204;-60
2021/03/04 05:39:24;;;;;;;44.77;26.83;;;4.90;80.60;;;;;;5093924;28;20205;-60
2021/03/04 05:41:51;;;;;;;48.03;26.13;;;4.90;80.80;;;;;;5097906;28;20201;-60
2021/03/04 05:44:18;;;;;;;45.63;24.73;;;5.00;80.90;;;;;;5095091;28;20213;-60
2021/03/04 05:46:47;;;;;;;43.03;26.27;;;4.90;80.70;;;;;;5095627;28;20216;-60
2021/03/04 05:49:17;;;;;;;42.70;27.03;;;4.90;80.80;;;;;;5099422;28;20231;-60
2021/03/04 05:51:58;;;;;;;47.23;26.70;;;4.90;80.80;;;;;;5097207;28;20219;-60
2021/03/04 05:54:27;;;;;;;51.57;26.70;;;4.90;80.80;;;;;;5106709;28;20239;-60
2021/03/04 05:56:57;;;;;;;53.40;26.83;;;4.90;80.80;;;;;;5108421;28;20211;-60
2021/03/04 05:59:26;;;;;;;47.40;26.50;;;4.90;80.80;;;;;;5094713;28;20283;-60
2021/03/04 06:01:53;;;;;;;49.07;26.27;;;5.00;81.00;;;;;;5102505;28;20220;-60
2021/03/04 06:04:20;;;;;;;42.63;24.70;;;5.00;81.00;;;;;;5104844;28;20209;-60
2021/03/04 06:06:47;;;;;;;50.77;27.57;;;5.10;81.00;;;;;;5103857;28;20208;-60
2021/03/04 06:09:13;;;;;;;45.50;27.47;;;5.20;80.80;;;;;;5100313;28;20200;-60
2021/03/04 06:11:40;;;;;;;47.50;28.23;;;5.20;80.70;;;;;;5099487;28;20224;-60
2021/03/04 06:14:07;;;;;;;42.07;25.53;;;5.20;80.70;;;;;;5097388;28;20562;-60
2021/03/04 06:16:34;;;;;;;51.33;27.30;;;5.20;80.40;;;;;;5095935;28;20215;-61
2021/03/04 06:19:00;;;;;;;47.30;28.33;;;5.30;80.40;;;;;;5098002;28;20205;-59
2021/03/04 06:21:28;;;;;;;47.63;28.53;;;5.30;80.40;;;;;;5097891;28;20255;-60
2021/03/04 06:23:57;;;;;;;45.67;25.40;;;5.40;80.50;;;;;;5105502;27;20654;-60
2021/03/04 06:26:37;;;;;;;50.63;28.10;;;5.50;80.50;;;;;;5099635;28;20226;-60
2021/03/04 06:29:21;;;;;;;49.70;26.77;;;5.50;80.40;;;;;;5094833;28;20209;-59
2021/03/04 06:32:07;;;;;;;51.87;27.47;;;5.60;80.10;;;;;;5102028;28;20212;-60
2021/03/04 06:34:34;;;;;;;45.70;26.50;;;5.70;79.90;;;;;;5092778;28;20236;-59
2021/03/04 06:37:03;;;;;;;43.23;28.43;;;5.80;79.70;;;;;;5104465;28;20196;-59
2021/03/04 06:39:44;;;;;;;47.70;27.47;;;5.90;79.60;;;;;;5096971;28;20244;-59
2021/03/04 06:42:11;;;;;;;55.83;29.40;;;6.00;79.40;;;;;;5093486;28;20213;-59
2021/03/04 06:44:45;;;;;;;54.50;28.60;;;6.00;79.10;;;;;;5095046;28;20631;-59
2021/03/04 06:47:23;;;;;;;52.23;28.63;;;6.00;79.20;;;;;;5102356;28;20213;-60
2021/03/04 06:49:51;;;;;;;58.77;31.80;;;6.10;79.50;;;;;;5095590;28;20265;-60
2021/03/04 06:52:33;;;;;;;58.40;30.63;;;6.10;79.50;;;;;;5099301;28;20341;-59
2021/03/04 06:55:07;;;;;;;53.23;27.80;;;6.30;79.50;;;;;;5094490;28;20232;-58
2021/03/04 06:57:34;;;;;;;54.37;28.77;;;6.30;79.40;;;;;;5096633;28;20619;-59
2021/03/04 07:00:01;;;;;;;50.73;28.70;;;6.50;79.40;;;;;;5100051;28;20353;-59
2021/03/04 07:02:31;;;;;;;58.50;30.77;;;6.60;79.20;;;;;;5102018;28;20205;-59
2021/03/04 07:04:58;;;;;;;60.97;31.70;;;6.70;79.00;;;;;;5103209;28;20308;-60
2021/03/04 07:07:26;;;;;;;55.63;31.63;;;6.80;78.90;;;;;;5098593;28;20213;-60
2021/03/04 07:09:57;;;;;;;61.33;31.60;;;6.90;79.20;;;;;;5101928;28;20209;-60
2021/03/04 07:12:24;;;;;;;60.60;33.30;;;7.00;79.20;;;;;;5100247;28;20213;-60
2021/03/04 07:14:52;;;;;;;58.63;33.23;;;7.20;79.30;;;;;;5102920;28;20624;-60
2021/03/04 07:17:27;;;;;;;50.17;30.60;;;7.40;79.40;;;;;;5101625;28;20204;-60
2021/03/04 07:20:00;;;;;;;53.83;33.53;;;7.70;79.30;;;;;;5096764;28;20215;-60
2021/03/04 07:22:29;;;;;;;55.13;31.93;;;7.90;79.60;;;;;;5094955;28;20209;-60
2021/03/04 07:24:57;;;;;;;52.70;32.33;;;8.10;78.60;;;;;;5094716;28;20204;-60
2021/03/04 07:27:24;;;;;;;53.07;31.37;;;8.30;78.40;;;;;;5096944;28;20205;-60
2021/03/04 07:29:51;;;;;;;53.33;32.23;;;8.50;78.00;;;;;;5093839;28;20292;-60
2021/03/04 07:32:21;;;;;;;56.47;30.83;;;8.70;77.60;;;;;;5102383;28;20290;-60
2021/03/04 07:34:49;;;;;;;49.03;29.73;;;8.90;77.20;;;;;;5105238;28;20229;-59
2021/03/04 07:37:18;;;;;;;56.30;31.43;;;9.10;76.60;;;;;;5094745;28;20212;-60
2021/03/04 07:39:47;;;;;;;43.70;28.40;;;9.30;76.00;;;;;;5092584;28;20197;-59
2021/03/04 07:42:21;;;;;;;47.43;30.27;;;9.60;75.40;;;;;;5092219;28;20197;-59
2021/03/04 07:44:48;;;;;;;50.20;30.57;;;9.80;74.50;;;;;;5099688;28;20220;-60
2021/03/04 07:47:24;;;;;;;55.17;30.70;;;10.00;73.70;;;;;;5099180;28;20219;-59
2021/03/04 07:49:52;;;;;;;52.70;29.87;;;10.20;72.70;;;;;;5101481;27;20204;-59
2021/03/04 07:52:22;;;;;;;58.03;32.10;;;10.30;72.30;;;;;;5096691;28;20205;-60
2021/03/04 07:54:54;;;;;;;46.97;30.77;;;10.50;71.70;;;;;;5102981;28;20229;-59
2021/03/04 07:57:23;;;;;;;50.93;31.07;;;10.60;70.80;;;;;;5097916;28;20205;-59
2021/03/04 07:59:58;;;;;;;56.40;32.67;;;10.70;70.30;;;;;;5092980;28;20236;-60
2021/03/04 08:02:27;;;;;;;58.77;34.40;;;10.80;70.30;;;;;;5093317;28;20208;-60
2021/03/04 08:05:30;;;;;;;54.93;33.97;;;10.90;69.40;;;;;;5093574;28;20208;-60
2021/03/04 08:07:57;;;;;;;54.17;34.43;;;10.90;68.40;;;;;;5103400;28;20285;-60
2021/03/04 08:10:25;;;;;;;53.70;32.20;;;11.00;69.00;;;;;;5104129;28;20209;-59
2021/03/04 08:12:52;;;;;;;54.40;32.67;;;11.20;68.70;;;;;;5097549;28;20204;-60
2021/03/04 08:15:29;;;;;;;48.17;33.13;;;11.50;68.10;;;;;;5099764;28;20208;-59
2021/03/04 08:17:57;;;;;;;59.00;34.03;;;11.70;67.30;;;;;;5103550;28;20204;-59
2021/03/04 08:20:25;;;;;;;57.13;34.10;;;12.00;66.60;;;;;;5091591;28;20216;-59
2021/03/04 08:22:57;;;;;;;59.47;35.97;;;12.10;66.50;;;;;;5099431;28;20209;-60
2021/03/04 08:25:28;;;;;;;52.33;36.30;;;12.20;66.30;;;;;;5091779;28;20213;-60
2021/03/04 08:27:56;;;;;;;50.37;34.33;;;12.30;65.90;;;;;;5099789;28;20205;-60
2021/03/04 08:30:35;;;;;;;51.60;34.10;;;12.40;65.20;;;;;;5098283;28;20215;-59
2021/03/04 08:33:05;;;;;;;50.53;33.43;;;12.50;65.00;;;;;;5095091;28;20209;-60
2021/03/04 08:35:40;;;;;;;50.23;33.63;;;12.50;65.10;;;;;;5094363;28;20602;-60
2021/03/04 08:38:09;;;;;;;47.73;31.60;;;12.70;64.90;;;;;;5106476;28;20205;-60
2021/03/04 08:40:44;;;;;;;52.07;33.03;;;12.90;64.90;;;;;;5094723;28;20209;-61
2021/03/04 08:43:14;;;;;;;58.63;34.90;;;13.10;64.40;;;;;;5090977;28;20656;-60
2021/03/04 08:45:41;;;;;;;49.57;33.27;;;13.20;63.90;;;;;;5093125;28;20209;-60
2021/03/04 08:48:10;;;;;;;52.00;31.63;;;13.40;63.60;;;;;;5097343;28;20213;-60
2021/03/04 08:50:46;;;;;;;49.27;32.87;;;13.50;62.70;;;;;;5091390;28;20607;-60
2021/03/04 08:53:18;;;;;;;41.83;29.63;;;13.60;62.50;;;;;;5093684;28;20204;-60
2021/03/04 08:55:56;;;;;;;56.67;32.57;;;13.80;62.20;;;;;;5097309;28;20228;-61
2021/03/04 08:58:25;;;;;;;43.00;29.40;;;13.90;62.00;;;;;;5102155;28;20234;-61
2021/03/04 09:00:51;;;;;;;51.87;31.93;;;14.10;61.60;;;;;;5099469;28;20552;-60
2021/03/04 09:03:20;;;;;;;45.70;30.70;;;14.10;61.10;;;;;;5101206;27;20243;-60
2021/03/04 09:05:48;;;;;;;53.20;32.23;;;14.20;60.80;;;;;;5098784;28;20209;-61
2021/03/04 09:08:17;;;;;;;55.27;31.70;;;14.30;59.50;;;;;;5102428;28;20209;-60
2021/03/04 09:10:48;;;;;;;61.73;35.67;;;14.30;59.20;;;;;;5107495;28;20212;-60
2021/03/04 09:13:25;;;;;;;43.70;31.60;;;14.40;59.80;;;;;;5100733;28;20265;-60
2021/03/04 09:15:58;;;;;;;48.17;32.10;;;14.60;59.90;;;;;;5111763;28;20200;-61
2021/03/04 09:18:25;;;;;;;52.63;31.77;;;14.70;60.00;;;;;;5102485;28;20228;-60
2021/03/04 09:20:53;;;;;;;51.93;32.67;;;14.80;58.90;;;;;;5098903;28;20607;-60
2021/03/04 09:23:21;;;;;;;54.77;35.43;;;14.90;58.10;;;;;;5102411;28;20725;-61
2021/03/04 09:25:54;;;;;;;54.70;35.63;;;14.90;57.70;;;;;;5096451;28;20231;-60
2021/03/04 09:28:21;;;;;;;59.67;37.37;;;14.90;57.10;;;;;;5097667;28;20201;-60
2021/03/04 09:30:47;;;;;;;65.63;39.90;;;15.00;57.10;;;;;;5102316;28;20205;-60
2021/03/04 09:33:22;;;;;;;55.77;37.77;;;15.10;55.90;;;;;;5102870;28;20618;-60
2021/03/04 09:35:59;;;;;;;59.60;40.13;;;15.00;56.30;;;;;;5101913;28;20209;-60
2021/03/04 09:38:31;;;;;;;53.60;37.37;;;15.20;56.50;;;;;;5103964;28;20205;-60
2021/03/04 09:41:10;;;;;;;56.47;37.87;;;15.30;56.30;;;;;;5104232;28;20214;-61
2021/03/04 09:43:41;;;;;;;64.23;41.70;;;15.40;56.20;;;;;;5098268;28;20739;-60
2021/03/04 09:46:12;;;;;;;60.63;39.30;;;15.70;56.10;;;;;;5101678;28;20661;-60
2021/03/04 09:48:39;;;;;;;58.00;39.17;;;15.90;55.40;;;;;;5095744;28;20665;-60
2021/03/04 09:51:07;;;;;;;61.73;39.77;;;16.00;55.00;;;;;;5103636;28;20200;-60
2021/03/04 09:53:47;;;;;;;61.37;39.23;;;16.10;54.90;;;;;;5105376;28;20327;-61
2021/03/04 09:56:21;;;;;;;56.37;38.63;;;16.10;53.10;;;;;;5095886;28;20244;-61
2021/03/04 09:58:48;;;;;;;58.37;37.83;;;16.00;53.20;;;;;;5107114;28;20243;-60
2021/03/04 10:01:36;;;;;;;57.03;39.07;;;16.00;53.90;;;;;;5103753;28;20216;-60
2021/03/04 10:04:07;;;;;;;62.67;40.33;;;16.20;53.80;;;;;;5102277;28;20227;-59
2021/03/04 10:06:34;;;;;;;61.40;39.77;;;16.30;53.60;;;;;;5099964;28;20227;-60
2021/03/04 10:09:01;;;;;;;54.80;37.33;;;16.40;52.50;;;;;;5095824;28;20213;-61
2021/03/04 10:11:31;;;;;;;59.93;40.40;;;16.30;52.70;;;;;;5102849;28;20209;-60
2021/03/04 10:14:12;;;;;;;57.53;39.43;;;16.20;53.20;;;;;;5103025;28;20240;-60
2021/03/04 10:16:53;;;;;;;59.73;39.20;;;16.10;53.20;;;;;;5097804;28;20209;-61
2021/03/04 10:19:19;;;;;;;62.73;38.47;;;16.10;53.00;;;;;;5109867;28;20200;-61
2021/03/04 10:21:46;;;;;;;55.20;38.90;;;16.10;52.50;;;;;;5099460;28;20594;-60
2021/03/04 10:24:13;;;;;;;61.77;40.50;;;16.10;52.70;;;;;;5102349;28;20215;-60
2021/03/04 10:26:40;;;;;;;57.97;40.17;;;16.10;53.40;;;;;;5108391;28;20242;-60
2021/03/04 10:29:07;;;;;;;61.80;40.90;;;16.00;53.10;;;;;;5095512;28;20204;-61
2021/03/04 10:31:33;;;;;;;58.40;40.80;;;16.10;53.70;;;;;;5099338;28;20205;-60
2021/03/04 10:34:00;;;;;;;65.57;41.87;;;16.10;54.10;;;;;;5101087;28;20243;-60
2021/03/04 10:36:27;;;;;;;66.23;42.53;;;16.20;54.40;;;;;;5103288;28;20308;-62
2021/03/04 10:38:53;;;;;;;62.50;42.17;;;16.20;53.70;;;;;;5095078;28;20205;-60
2021/03/04 10:41:20;;;;;;;66.07;44.13;;;16.20;54.10;;;;;;5099327;28;20217;-58
2021/03/04 10:43:46;;;;;;;61.20;41.93;;;16.20;54.10;;;;;;5098105;28;20672;-60
2021/03/04 10:46:12;;;;;;;59.93;41.70;;;16.20;53.30;;;;;;5099604;28;20653;-62
2021/03/04 10:48:39;;;;;;;60.50;42.00;;;16.20;53.40;;;;;;5100981;28;20612;-61
2021/03/04 10:51:06;;;;;;;69.00;42.17;;;16.30;53.10;;;;;;5098043;28;20567;-60
2021/03/04 10:53:32;;;;;;;65.00;41.90;;;16.50;53.40;;;;;;5098421;28;20227;-60
2021/03/04 10:55:59;;;;;;;61.90;42.00;;;16.70;52.80;;;;;;5099597;28;20232;-61
2021/03/04 10:58:26;;;;;;;66.27;40.73;;;16.90;53.00;;;;;;5106273;28;20755;-60
2021/03/04 11:00:52;;;;;;;61.27;41.53;;;17.00;51.90;;;;;;5095532;28;20296;-58
2021/03/04 11:03:20;;;;;;;61.60;42.87;;;17.00;52.10;;;;;;5098308;28;20595;-60
2021/03/04 11:05:47;;;;;;;60.93;40.73;;;17.00;51.80;;;;;;5104646;28;20208;-60
2021/03/04 11:08:14;;;;;;;61.57;40.13;;;17.00;51.90;;;;;;5099641;28;20567;-60
2021/03/04 11:10:41;;;;;;;59.33;41.13;;;17.00;51.10;;;;;;5101305;28;20209;-60
2021/03/04 11:13:08;;;;;;;58.13;39.53;;;17.10;51.00;;;;;;5097044;28;20482;-60
2021/03/04 11:15:34;;;;;;;62.90;40.00;;;17.10;50.90;;;;;;5106462;28;20251;-60
2021/03/04 11:18:01;;;;;;;66.80;43.30;;;17.10;50.90;;;;;;5103779;28;20630;-60
2021/03/04 11:20:28;;;;;;;62.77;42.40;;;17.00;51.10;;;;;;5099905;28;20269;-60
2021/03/04 11:22:54;;;;;;;60.60;42.53;;;17.00;50.50;;;;;;5098327;28;20217;-60
2021/03/04 11:25:21;;;;;;;62.30;42.93;;;17.10;50.90;;;;;;5112000;28;20291;-60
2021/03/04 11:27:48;;;;;;;60.03;42.17;;;17.20;50.70;;;;;;5094649;28;20223;-60
2021/03/04 11:30:15;;;;;;;61.87;44.10;;;17.20;50.50;;;;;;5095221;28;20209;-60
2021/03/04 11:32:41;;;;;;;66.10;45.33;;;17.20;50.20;;;;;;5103885;28;20208;-60
2021/03/04 11:35:08;;;;;;;63.10;45.07;;;17.10;50.50;;;;;;5100163;28;20239;-60
2021/03/04 11:37:35;;;;;;;60.20;41.87;;;17.20;50.80;;;;;;5095935;28;20202;-60
2021/03/04 11:40:03;;;;;;;65.13;45.23;;;17.40;49.30;;;;;;5095790;28;20197;-60
2021/03/04 11:42:29;;;;;;;64.93;42.20;;;17.40;49.40;;;;;;5104557;28;20210;-60
2021/03/04 11:44:56;;;;;;;64.97;45.83;;;17.40;48.10;;;;;;5099427;28;20213;-60
2021/03/04 11:47:22;;;;;;;71.03;43.17;;;17.30;48.90;;;;;;5094035;28;20201;-60
2021/03/04 11:49:49;;;;;;;61.00;43.00;;;17.30;49.10;;;;;;5099647;28;20208;-60
2021/03/04 11:52:16;;;;;;;62.27;45.87;;;17.30;49.80;;;;;;5096421;28;20289;-60
2021/03/04 11:54:43;;;;;;;63.13;42.70;;;17.30;49.20;;;;;;5091269;28;20701;-60
2021/03/04 11:57:09;;;;;;;61.87;42.00;;;17.30;49.60;;;;;;5096004;28;20415;-59
2021/03/04 11:59:36;;;;;;;60.87;42.80;;;17.40;49.00;;;;;;5091558;28;20450;-60
2021/03/04 12:02:03;;;;;;;66.93;43.57;;;17.50;47.10;;;;;;5100785;28;20205;-60
2021/03/04 12:04:30;;;;;;;67.30;46.90;;;17.40;47.60;;;;;;5103277;28;20216;-60
2021/03/04 12:06:58;;;;;;;74.33;48.50;;;17.40;48.30;;;;;;5096395;28;20207;-60
2021/03/04 12:09:26;;;;;;;75.83;50.33;;;17.50;46.50;;;;;;5099985;28;20220;-60
2021/03/04 12:11:54;;;;;;;74.57;50.27;;;17.50;47.60;;;;;;5092486;28;20236;-60
2021/03/04 12:14:20;;;;;;;80.80;51.53;;;17.60;46.00;;;;;;5100920;28;20224;-60
2021/03/04 12:16:47;;;;;;;74.10;50.17;;;17.60;46.40;;;;;;5096047;28;20295;-60
2021/03/04 12:19:16;;;;;;;69.40;48.37;;;17.70;46.30;;;;;;5101095;28;20197;-60
2021/03/04 12:21:43;;;;;;;77.77;51.33;;;17.70;45.80;;;;;;5095855;28;20500;-60
2021/03/04 12:24:10;;;;;;;69.53;47.73;;;17.70;46.90;;;;;;5096661;28;20301;-60
2021/03/04 12:26:44;;;;;;;77.47;50.30;;;17.70;45.80;;;;;;5091985;28;20292;-60
2021/03/04 12:29:10;;;;;;;70.63;45.70;;;17.70;44.70;;;;;;5091918;28;20672;-60
2021/03/04 12:31:39;;;;;;;61.03;44.47;;;17.60;44.60;;;;;;5099449;28;20219;-60
2021/03/04 12:34:06;;;;;;;73.10;48.83;;;17.70;44.90;;;;;;5097344;28;20249;-60
2021/03/04 12:36:33;;;;;;;75.07;49.43;;;17.70;44.70;;;;;;5097881;28;20213;-60
2021/03/04 12:38:59;;;;;;;71.57;49.60;;;17.80;44.00;;;;;;5092675;28;20209;-60
2021/03/04 12:41:26;;;;;;;67.73;44.73;;;17.80;44.60;;;;;;5095350;28;20205;-60
2021/03/04 12:43:54;;;;;;;59.90;41.57;;;17.80;45.10;;;;;;5094096;28;20219;-60